Time;durP1;ratioP1;P1;durP2;ratioP2;P2;SDS_P1;SDS_P2;PMS_P1;PMS_P2;Temp;Humidity;BMP_temperature;BMP_pressure;BME280_temperature;BME280_humidity;BME280_pressure;Samples;Min_cycle;Max_cycle;Signal;HPM_P1;HPM_P2
2023/12/11 00:00:28;;;;;;;3.97;1.73;;;;;;;19.49;55.85;99377.94;4921937;29;20474;-65
2023/12/11 00:02:53;;;;;;;3.00;1.00;;;;;;;19.55;55.86;99387.75;4898576;28;20589;-66
2023/12/11 00:05:18;;;;;;;5.30;1.27;;;;;;;19.60;55.36;99373.03;4937723;29;20195;-67
2023/12/11 00:07:44;;;;;;;2.27;1.13;;;;;;;19.59;56.24;99369.34;4918040;29;20198;-66
2023/12/11 00:10:09;;;;;;;4.60;1.57;;;;;;;19.57;55.65;99366.06;4921003;29;20183;-67
2023/12/11 00:12:36;;;;;;;3.40;1.37;;;;;;;19.57;55.71;99356.69;4934910;29;20195;-67
2023/12/11 00:15:02;;;;;;;3.80;1.70;;;;;;;19.54;56.03;99360.34;4945537;28;20191;-69
2023/12/11 00:17:28;;;;;;;3.83;1.57;;;;;;;19.51;55.75;99364.06;4934626;29;20453;-68
2023/12/11 00:19:53;;;;;;;3.40;1.50;;;;;;;19.52;56.22;99380.78;4961220;28;20190;-67
2023/12/11 00:22:18;;;;;;;5.03;1.60;;;;;;;19.50;56.00;99389.00;4939403;28;20186;-67
2023/12/11 00:24:44;;;;;;;3.60;1.27;;;;;;;19.49;56.12;99390.22;4934481;29;20187;-67
2023/12/11 00:27:11;;;;;;;4.20;1.53;;;;;;;19.50;56.23;99394.72;4935346;29;20202;-67
2023/12/11 00:29:37;;;;;;;3.03;1.33;;;;;;;19.47;56.11;99395.53;4921425;29;20314;-68
2023/12/11 00:32:03;;;;;;;2.60;1.00;;;;;;;19.53;55.72;99396.78;4933313;29;20965;-67
2023/12/11 00:34:29;;;;;;;4.90;1.70;;;;;;;19.42;55.87;99406.59;4935218;28;20224;-68
2023/12/11 00:36:54;;;;;;;5.23;1.50;;;;;;;19.37;56.06;99424.16;4930232;29;20190;-68
2023/12/11 00:39:19;;;;;;;6.60;1.50;;;;;;;19.26;55.17;99411.88;4919172;29;20586;-68
2023/12/11 00:41:45;;;;;;;3.10;1.20;;;;;;;19.19;55.31;99415.53;4918014;29;20240;-68
2023/12/11 00:44:10;;;;;;;3.20;1.07;;;;;;;19.16;54.46;99419.19;4922834;29;20179;-68
2023/12/11 00:46:36;;;;;;;3.40;1.47;;;;;;;19.17;54.47;99432.25;4926138;28;20182;-68
2023/12/11 00:49:02;;;;;;;5.50;1.70;;;;;;;19.20;54.72;99397.13;4903716;29;20206;-67
2023/12/11 00:51:27;;;;;;;4.07;1.50;;;;;;;19.17;54.54;99386.47;4918936;29;20179;-67
2023/12/11 00:53:52;;;;;;;5.97;1.40;;;;;;;19.11;55.03;99382.41;4902833;29;20196;-67
2023/12/11 00:56:18;;;;;;;2.90;1.50;;;;;;;19.13;54.70;99391.41;4920689;29;20211;-67
2023/12/11 00:58:43;;;;;;;6.53;1.37;;;;;;;19.17;54.84;99389.34;4937308;28;20206;-67
2023/12/11 01:01:09;;;;;;;4.13;1.40;;;;;;;19.17;54.47;99395.06;4936994;29;20206;-67
2023/12/11 01:03:35;;;;;;;3.40;1.20;;;;;;;19.16;55.10;99407.75;4941609;29;20194;-66
2023/12/11 01:06:01;;;;;;;3.13;1.30;;;;;;;19.17;55.12;99403.66;4904536;29;20189;-67
2023/12/11 01:08:27;;;;;;;3.07;1.30;;;;;;;19.12;55.74;99394.66;4932156;29;20447;-67
2023/12/11 01:10:54;;;;;;;4.57;1.40;;;;;;;19.12;55.25;99397.53;4919604;29;20163;-68
2023/12/11 01:13:20;;;;;;;3.23;1.40;;;;;;;19.10;55.19;99392.22;4902472;29;20437;-67
2023/12/11 01:15:45;;;;;;;3.40;0.90;;;;;;;19.12;54.96;99401.19;4932187;29;20431;-67
2023/12/11 01:18:11;;;;;;;4.53;1.23;;;;;;;19.07;56.10;99410.19;4934351;29;20182;-67
2023/12/11 01:20:36;;;;;;;5.90;1.07;;;;;;;19.07;55.54;99404.44;4916621;29;20229;-67
2023/12/11 01:23:02;;;;;;;5.17;1.70;;;;;;;19.08;55.46;99411.84;4919030;29;20199;-67
2023/12/11 01:25:27;;;;;;;3.70;1.10;;;;;;;19.06;55.56;99420.00;4916458;29;20183;-77
2023/12/11 01:27:53;;;;;;;3.00;1.17;;;;;;;19.05;55.62;99403.22;4916685;29;20190;-76
2023/12/11 01:30:18;;;;;;;5.83;1.50;;;;;;;19.03;55.88;99409.38;4932875;29;20231;-74
2023/12/11 01:32:44;;;;;;;3.20;0.93;;;;;;;19.03;56.11;99406.50;4902693;29;20187;-74
2023/12/11 01:35:09;;;;;;;4.90;1.43;;;;;;;19.03;56.08;99412.25;4921065;29;20215;-72
2023/12/11 01:37:35;;;;;;;4.10;1.27;;;;;;;19.02;55.86;99418.34;4933554;29;20179;-74
2023/12/11 01:40:00;;;;;;;3.47;1.23;;;;;;;19.00;56.22;99420.78;4900577;29;20187;-73
2023/12/11 01:42:25;;;;;;;5.20;1.80;;;;;;;18.99;56.12;99407.72;4919257;29;20187;-71
2023/12/11 01:44:51;;;;;;;2.80;1.20;;;;;;;18.99;56.41;99405.69;4932858;29;20186;-73
2023/12/11 01:47:16;;;;;;;2.07;0.90;;;;;;;19.01;56.10;99400.34;4933534;29;20286;-72
2023/12/11 01:49:42;;;;;;;4.33;1.20;;;;;;;19.01;56.01;99406.09;4930413;29;20800;-73
2023/12/11 01:52:07;;;;;;;2.73;1.37;;;;;;;18.99;56.58;99396.28;4934172;29;20167;-75
2023/12/11 01:54:33;;;;;;;4.60;1.37;;;;;;;18.97;56.36;99396.66;4949896;29;20175;-73
2023/12/11 01:56:58;;;;;;;4.30;1.30;;;;;;;18.99;55.74;99385.66;4935718;29;20300;-74
2023/12/11 01:59:24;;;;;;;3.50;1.10;;;;;;;18.94;56.17;99388.91;4915906;29;20232;-74
2023/12/11 02:01:49;;;;;;;3.60;1.17;;;;;;;18.98;56.07;99383.19;4926732;29;20616;-74
2023/12/11 02:04:15;;;;;;;3.20;1.13;;;;;;;18.95;56.04;99379.09;4929493;29;20190;-74
2023/12/11 02:06:41;;;;;;;3.70;1.30;;;;;;;18.94;56.18;99383.19;4936956;29;20211;-73
2023/12/11 02:09:07;;;;;;;2.60;0.90;;;;;;;18.93;56.42;99375.84;4934480;29;20501;-74
2023/12/11 02:11:32;;;;;;;5.03;1.10;;;;;;;18.94;56.24;99385.22;4933821;29;20916;-71
2023/12/11 02:13:57;;;;;;;6.07;1.50;;;;;;;18.92;56.31;99397.06;4917164;29;20182;-73
2023/12/11 02:16:23;;;;;;;2.20;1.10;;;;;;;18.96;55.82;99403.63;4916917;29;20179;-74
2023/12/11 02:18:48;;;;;;;2.20;1.00;;;;;;;18.93;56.26;99395.88;4949200;29;20194;-70
2023/12/11 02:21:14;;;;;;;3.23;1.17;;;;;;;18.92;56.63;99410.56;4917559;29;20199;-72
2023/12/11 02:23:53;;;;;;;3.70;1.20;;;;;;;18.92;56.32;99396.28;4933478;29;20551;-74
2023/12/11 02:26:19;;;;;;;2.93;1.40;;;;;;;18.93;56.66;99409.34;4907247;29;20187;-75
2023/12/11 02:28:44;;;;;;;4.53;1.17;;;;;;;18.90;56.48;99399.53;4918085;29;20505;-71
2023/12/11 02:31:10;;;;;;;3.60;1.40;;;;;;;18.88;56.46;99396.28;4918093;29;20274;-75
2023/12/11 02:33:35;;;;;;;2.40;1.00;;;;;;;18.88;56.55;99387.69;4936784;29;20242;-73
2023/12/11 02:36:01;;;;;;;2.33;0.90;;;;;;;18.87;56.31;99391.75;4936041;29;20186;-65
2023/12/11 02:38:26;;;;;;;2.80;1.03;;;;;;;18.87;56.48;99400.31;4931560;29;20214;-65
2023/12/11 02:40:52;;;;;;;4.03;1.07;;;;;;;18.88;56.64;99401.16;4928861;29;20206;-65
2023/12/11 02:43:20;;;;;;;2.43;1.00;;;;;;;18.89;56.67;99388.50;4900564;29;20183;-65
2023/12/11 02:45:46;;;;;;;2.73;1.20;;;;;;;18.90;56.33;99388.09;4923245;29;20182;-65
2023/12/11 02:48:11;;;;;;;3.17;1.20;;;;;;;18.85;56.91;99379.06;4948382;29;20431;-65
2023/12/11 02:50:37;;;;;;;4.60;1.23;;;;;;;18.85;56.92;99379.06;4935517;29;20208;-65
2023/12/11 02:53:03;;;;;;;6.17;1.30;;;;;;;18.84;56.96;99372.56;4918715;29;20271;-65
2023/12/11 02:55:28;;;;;;;3.33;1.20;;;;;;;18.84;56.76;99372.56;4918292;29;20179;-65
2023/12/11 02:57:56;;;;;;;2.10;0.90;;;;;;;18.85;56.80;99382.75;4935449;29;20175;-65
2023/12/11 03:00:22;;;;;;;3.53;1.13;;;;;;;18.83;56.78;99382.38;4936192;29;20202;-65
2023/12/11 03:02:47;;;;;;;1.90;0.80;;;;;;;18.86;56.46;99387.25;4918507;29;20501;-65
2023/12/11 03:05:13;;;;;;;3.13;1.20;;;;;;;18.83;56.78;99392.97;4967207;28;20163;-65
2023/12/11 03:07:38;;;;;;;3.77;1.10;;;;;;;18.84;56.81;99392.56;4950164;28;20214;-65
2023/12/11 03:10:04;;;;;;;3.50;0.97;;;;;;;18.84;56.79;99375.41;4966229;28;20175;-65
2023/12/11 03:12:29;;;;;;;3.83;1.20;;;;;;;18.82;56.92;99365.59;4942930;29;20258;-65
2023/12/11 03:14:55;;;;;;;2.53;1.20;;;;;;;18.83;56.88;99364.38;4982750;28;20178;-65
2023/12/11 03:17:20;;;;;;;1.90;0.73;;;;;;;18.80;56.74;99360.28;4972492;28;20184;-65
2023/12/11 03:19:46;;;;;;;2.27;1.33;;;;;;;18.80;56.76;99360.28;4924038;29;20191;-65
2023/12/11 03:22:11;;;;;;;2.63;1.00;;;;;;;18.81;56.81;99361.13;4930316;29;20268;-66
2023/12/11 03:24:37;;;;;;;1.87;0.87;;;;;;;18.81;56.81;99359.06;4947583;28;20224;-65
2023/12/11 03:27:02;;;;;;;2.20;0.90;;;;;;;18.80;57.08;99345.16;4952435;29;20178;-65
2023/12/11 03:29:28;;;;;;;2.70;1.00;;;;;;;18.79;57.03;99341.50;4935291;29;20231;-65
2023/12/11 03:31:53;;;;;;;3.00;0.90;;;;;;;18.77;56.81;99329.63;4935416;29;20175;-65
2023/12/11 03:34:19;;;;;;;2.70;1.00;;;;;;;18.78;56.75;99331.28;4917083;29;20203;-65
2023/12/11 03:36:44;;;;;;;3.60;1.40;;;;;;;18.77;56.90;99321.06;4968077;28;20183;-65
2023/12/11 03:39:09;;;;;;;4.70;1.03;;;;;;;18.78;56.65;99313.31;4915178;29;20183;-65
2023/12/11 03:41:35;;;;;;;3.20;1.20;;;;;;;18.76;56.95;99308.00;4950664;29;20226;-65
2023/12/11 03:44:00;;;;;;;2.10;0.93;;;;;;;18.75;57.10;99309.22;4950984;29;20234;-73
2023/12/11 03:46:26;;;;;;;3.93;1.17;;;;;;;18.77;56.74;99315.34;4933145;29;20206;-74
2023/12/11 03:48:51;;;;;;;2.07;0.93;;;;;;;18.76;56.78;99319.44;4939450;29;20266;-73
2023/12/11 03:51:17;;;;;;;2.77;1.00;;;;;;;18.74;56.88;99330.47;4948117;28;20182;-73
2023/12/11 03:53:42;;;;;;;2.37;1.03;;;;;;;18.77;57.05;99337.41;4946421;29;20270;-74
2023/12/11 03:56:08;;;;;;;3.30;1.27;;;;;;;18.77;56.99;99346.00;4946604;28;20188;-71
2023/12/11 03:58:33;;;;;;;2.40;0.93;;;;;;;18.78;56.76;99376.22;4917146;29;20204;-74
2023/12/11 04:00:59;;;;;;;1.87;0.90;;;;;;;18.75;57.19;99382.72;4949899;28;20671;-73
2023/12/11 04:03:24;;;;;;;2.10;1.10;;;;;;;18.75;56.83;99388.44;4932927;29;20168;-75
2023/12/11 04:05:49;;;;;;;2.20;0.87;;;;;;;18.74;56.71;99367.63;4899452;29;20214;-73
2023/12/11 04:08:16;;;;;;;2.87;1.10;;;;;;;18.74;56.53;99358.22;4946088;28;20195;-74
2023/12/11 04:10:41;;;;;;;2.93;1.10;;;;;;;18.72;56.62;99367.19;4959447;28;20880;-74
2023/12/11 04:13:07;;;;;;;2.20;1.10;;;;;;;18.72;56.94;99378.63;4929156;29;20547;-74
2023/12/11 04:15:33;;;;;;;2.27;0.77;;;;;;;18.72;57.01;99367.19;4945845;29;20173;-70
2023/12/11 04:17:58;;;;;;;2.80;0.97;;;;;;;18.70;57.37;99352.50;4947508;29;20177;-73
2023/12/11 04:20:24;;;;;;;2.37;1.30;;;;;;;18.72;56.58;99354.97;4917560;29;20514;-73
2023/12/11 04:22:49;;;;;;;2.87;0.90;;;;;;;18.71;57.13;99365.56;4963932;28;20188;-74
2023/12/11 04:25:14;;;;;;;1.97;0.80;;;;;;;18.72;57.00;99378.63;4919160;29;20246;-72
2023/12/11 04:27:40;;;;;;;6.00;1.20;;;;;;;18.74;56.70;99355.38;4905069;29;20191;-74
2023/12/11 04:30:07;;;;;;;1.90;0.90;;;;;;;18.71;56.82;99348.41;4918444;29;20228;-71
2023/12/11 04:32:32;;;;;;;1.70;0.90;;;;;;;18.71;56.66;99328.41;4959857;28;20190;-74
2023/12/11 04:34:57;;;;;;;3.20;0.93;;;;;;;18.71;57.15;99319.03;4933054;29;21067;-75
2023/12/11 04:37:23;;;;;;;2.27;1.00;;;;;;;18.72;56.76;99314.94;4901524;29;20190;-74
2023/12/11 04:39:48;;;;;;;3.20;1.20;;;;;;;18.73;56.82;99343.13;4900097;29;20663;-75
2023/12/11 04:42:14;;;;;;;2.70;1.00;;;;;;;18.73;56.98;99348.84;4917495;29;20192;-75
2023/12/11 04:44:39;;;;;;;4.43;1.33;;;;;;;18.71;57.14;99339.84;4917400;29;20176;-74
2023/12/11 04:47:05;;;;;;;2.27;0.90;;;;;;;18.72;56.73;99338.59;4946614;29;20199;-73
2023/12/11 04:49:30;;;;;;;1.97;0.70;;;;;;;18.70;56.66;99326.78;4921036;29;20192;-75
2023/12/11 04:51:55;;;;;;;2.53;1.07;;;;;;;18.71;56.92;99313.31;4957054;28;20647;-75
2023/12/11 04:54:21;;;;;;;2.93;1.17;;;;;;;18.70;56.69;99317.38;4949320;29;20606;-65
2023/12/11 04:56:46;;;;;;;2.50;0.80;;;;;;;18.71;56.73;99328.41;4933745;29;20172;-65
2023/12/11 04:59:12;;;;;;;3.00;0.70;;;;;;;18.71;56.68;99327.59;4957859;28;20191;-65
2023/12/11 05:01:37;;;;;;;2.87;1.20;;;;;;;18.69;57.04;99333.72;4923605;29;20208;-65
2023/12/11 05:04:03;;;;;;;2.10;0.87;;;;;;;18.68;57.14;99334.94;4918576;29;20187;-65
2023/12/11 05:06:28;;;;;;;1.60;0.80;;;;;;;18.70;57.33;99301.03;4917772;29;20674;-65
2023/12/11 05:08:54;;;;;;;1.87;0.93;;;;;;;18.70;57.18;99280.19;4914384;29;20191;-65
2023/12/11 05:11:19;;;;;;;1.67;0.70;;;;;;;18.68;57.12;99289.22;4966156;28;20183;-65
2023/12/11 05:13:44;;;;;;;3.40;1.20;;;;;;;18.70;56.67;99288.78;4964841;28;20168;-65
2023/12/11 05:16:10;;;;;;;3.87;1.50;;;;;;;18.67;57.29;99278.97;4933669;29;20583;-65
2023/12/11 05:18:37;;;;;;;2.03;0.90;;;;;;;18.69;56.94;99281.44;4954549;28;20195;-65
2023/12/11 05:21:07;;;;;;;2.10;1.00;;;;;;;18.67;57.10;99278.97;4966450;28;20539;-65
2023/12/11 05:23:32;;;;;;;1.90;0.80;;;;;;;18.68;56.80;99288.38;4948394;29;20443;-65
2023/12/11 05:25:57;;;;;;;1.80;0.90;;;;;;;18.66;56.79;99293.69;4918697;29;20432;-65
2023/12/11 05:28:23;;;;;;;2.87;0.90;;;;;;;18.67;57.09;99298.19;4932637;29;20168;-65
2023/12/11 05:30:48;;;;;;;1.77;0.83;;;;;;;18.70;57.08;99292.47;4953697;28;20667;-65
2023/12/11 05:33:14;;;;;;;2.17;0.87;;;;;;;18.68;56.59;99306.34;4918306;29;20184;-65
2023/12/11 05:35:39;;;;;;;2.03;0.77;;;;;;;18.66;56.75;99305.13;4918772;29;20243;-65
2023/12/11 05:38:04;;;;;;;2.20;0.70;;;;;;;18.66;57.00;99314.50;4900677;29;20246;-65
2023/12/11 05:40:30;;;;;;;3.50;1.23;;;;;;;18.66;57.16;99325.94;4966430;28;20211;-65
2023/12/11 05:42:55;;;;;;;2.00;0.87;;;;;;;18.68;56.87;99334.94;4950239;29;20199;-65
2023/12/11 05:45:21;;;;;;;1.70;0.70;;;;;;;18.67;56.82;99327.56;4965693;28;20172;-65
2023/12/11 05:47:46;;;;;;;1.73;0.73;;;;;;;18.67;56.75;99301.84;4900742;29;20255;-65
2023/12/11 05:50:12;;;;;;;2.17;0.90;;;;;;;18.66;56.92;99297.34;4933411;29;20179;-65
2023/12/11 05:52:37;;;;;;;2.60;1.00;;;;;;;18.65;56.96;99277.75;4949384;29;20206;-65
2023/12/11 05:55:03;;;;;;;3.27;1.10;;;;;;;18.65;57.03;99275.72;4932910;29;20179;-65
2023/12/11 05:57:29;;;;;;;2.70;0.70;;;;;;;18.68;56.85;99283.50;4922057;29;20247;-65
2023/12/11 05:59:55;;;;;;;1.60;0.80;;;;;;;18.67;56.72;99298.97;4949500;28;20187;-65
2023/12/11 06:02:20;;;;;;;1.80;0.90;;;;;;;18.68;56.64;99303.50;4929969;29;20207;-65
2023/12/11 06:04:46;;;;;;;2.13;0.87;;;;;;;18.69;56.64;99302.28;4948556;29;20443;-65
2023/12/11 06:07:11;;;;;;;2.40;0.93;;;;;;;18.67;56.49;99298.97;4921158;29;20180;-65
2023/12/11 06:09:37;;;;;;;2.20;0.90;;;;;;;18.71;56.42;99304.72;4939978;29;20183;-65
2023/12/11 06:12:03;;;;;;;2.23;0.70;;;;;;;18.71;56.69;99305.53;4965884;28;20160;-65
2023/12/11 06:14:28;;;;;;;1.60;0.60;;;;;;;18.69;56.53;99296.56;4964007;28;20202;-65
2023/12/11 06:16:54;;;;;;;2.10;0.90;;;;;;;18.71;56.53;99290.44;4942951;29;21203;-65
2023/12/11 06:19:19;;;;;;;2.63;0.90;;;;;;;18.71;56.63;99287.56;4926121;29;20672;-65
2023/12/11 06:21:45;;;;;;;3.50;0.80;;;;;;;18.71;56.91;99265.50;4963498;28;20210;-65
2023/12/11 06:24:10;;;;;;;2.20;0.97;;;;;;;18.69;56.46;99258.56;4933063;29;20630;-65
2023/12/11 06:26:36;;;;;;;1.83;0.80;;;;;;;18.69;56.71;99247.94;4948642;28;20196;-65
2023/12/11 06:29:02;;;;;;;2.30;1.10;;;;;;;18.69;56.79;99253.66;4917194;29;20196;-65
2023/12/11 06:31:28;;;;;;;3.03;0.83;;;;;;;18.70;56.02;99266.72;4948162;29;20580;-68
2023/12/11 06:33:53;;;;;;;7.20;1.00;;;;;;;18.66;57.25;99283.06;4919710;29;20234;-67
2023/12/11 06:36:19;;;;;;;8.40;1.40;;;;;;;18.69;57.63;99287.16;4931094;29;20427;-68
2023/12/11 06:38:45;;;;;;;6.40;1.90;;;;;;;18.78;57.58;99279.81;4941510;29;20747;-69
2023/12/11 06:41:10;;;;;;;6.37;1.50;;;;;;;18.70;57.36;99288.78;4928569;29;20525;-68
2023/12/11 06:43:37;;;;;;;6.20;1.57;;;;;;;18.67;56.95;99276.13;4921113;29;20211;-68
2023/12/11 06:46:02;;;;;;;4.83;1.23;;;;;;;18.78;56.76;99262.66;4925970;29;20465;-68
2023/12/11 06:48:29;;;;;;;4.53;1.60;;;;;;;18.96;56.59;99262.66;4958394;28;20195;-68
2023/12/11 06:50:54;;;;;;;6.00;1.40;;;;;;;19.02;56.00;99261.81;4939670;29;20179;-69
2023/12/11 06:53:20;;;;;;;2.80;1.37;;;;;;;19.03;56.94;99242.63;4926335;29;20438;-68
2023/12/11 06:55:45;;;;;;;2.93;1.40;;;;;;;19.10;56.95;99254.88;4944609;29;20198;-67
2023/12/11 06:58:11;;;;;;;3.83;1.50;;;;;;;19.09;57.53;99253.25;4955390;28;20182;-68
2023/12/11 07:00:36;;;;;;;3.30;1.60;;;;;;;19.12;57.93;99243.84;4958798;28;20219;-68
2023/12/11 07:03:02;;;;;;;4.73;1.30;;;;;;;19.23;57.71;99236.09;4926816;29;20703;-68
2023/12/11 07:05:28;;;;;;;4.00;1.47;;;;;;;19.21;58.38;99244.25;4932132;29;20188;-67
2023/12/11 07:07:53;;;;;;;4.47;1.40;;;;;;;19.21;58.72;99243.44;4924213;29;20432;-68
2023/12/11 07:10:19;;;;;;;3.87;1.50;;;;;;;19.21;58.48;99254.88;4941605;29;20183;-68
2023/12/11 07:12:45;;;;;;;4.13;1.40;;;;;;;19.23;58.07;99247.56;4961758;28;20707;-67
2023/12/11 07:15:11;;;;;;;3.77;1.70;;;;;;;19.32;59.20;99247.91;4942989;28;20183;-67
2023/12/11 07:17:37;;;;;;;2.37;1.40;;;;;;;19.35;58.39;99237.69;4909211;28;21011;-67
2023/12/11 07:20:03;;;;;;;3.50;1.70;;;;;;;19.25;58.87;99236.50;4969197;28;20182;-67
2023/12/11 07:22:30;;;;;;;3.80;1.43;;;;;;;19.21;58.54;99221.34;4942484;29;20219;-68
2023/12/11 07:24:56;;;;;;;3.70;1.23;;;;;;;19.24;57.83;99232.00;4945396;28;20452;-68
2023/12/11 07:27:21;;;;;;;6.10;2.43;;;;;;;19.16;60.02;99246.72;4939979;29;20434;-67
2023/12/11 07:29:47;;;;;;;3.70;1.43;;;;;;;19.18;59.07;99262.25;4914845;28;20288;-67
2023/12/11 07:32:13;;;;;;;5.03;1.63;;;;;;;19.25;59.01;99282.28;4924125;29;20209;-67
2023/12/11 07:34:38;;;;;;;4.90;1.80;;;;;;;19.26;59.01;99288.84;4976211;28;20708;-67
2023/12/11 07:37:04;;;;;;;4.43;1.90;;;;;;;19.31;58.40;99300.66;4962852;28;20182;-67
2023/12/11 07:39:29;;;;;;;7.97;1.60;;;;;;;19.36;58.44;99308.84;4928165;29;20714;-67
2023/12/11 07:41:55;;;;;;;5.07;1.93;;;;;;;19.32;59.50;99307.22;4921305;28;20214;-68
2023/12/11 07:44:20;;;;;;;2.40;1.50;;;;;;;19.37;59.43;99307.59;4931240;29;20188;-67
2023/12/11 07:46:45;;;;;;;6.37;1.73;;;;;;;19.31;59.19;99311.31;4938529;29;20187;-67
2023/12/11 07:49:14;;;;;;;4.33;1.90;;;;;;;19.38;59.76;99317.84;4929429;28;20246;-67
2023/12/11 07:51:39;;;;;;;4.00;1.73;;;;;;;19.40;59.74;99303.94;4952518;28;20184;-68
2023/12/11 07:54:04;;;;;;;3.37;1.60;;;;;;;19.38;59.50;99315.00;4938179;29;20445;-67
2023/12/11 07:56:30;;;;;;;4.20;1.40;;;;;;;19.35;59.74;99312.94;4941155;29;20271;-67
2023/12/11 07:58:55;;;;;;;1.83;0.97;;;;;;;19.33;58.99;99292.50;4962563;28;20219;-68
2023/12/11 08:01:21;;;;;;;5.33;1.77;;;;;;;19.32;58.01;99290.84;4964852;28;20609;-67
2023/12/11 08:03:46;;;;;;;5.33;1.57;;;;;;;19.24;58.19;99280.66;4946256;28;20201;-67
2023/12/11 08:06:12;;;;;;;4.77;1.67;;;;;;;19.27;57.56;99288.41;4901627;29;20179;-67
2023/12/11 08:08:42;;;;;;;5.27;2.00;;;;;;;19.19;57.70;99286.75;4932465;29;20242;-67
2023/12/11 08:11:21;;;;;;;14.23;2.07;;;;;;;19.17;56.50;99280.63;4932557;29;20183;-67
2023/12/11 08:13:47;;;;;;;7.13;1.67;;;;;;;19.11;56.97;99272.88;4948715;28;20449;-67
2023/12/11 08:16:13;;;;;;;5.47;1.93;;;;;;;19.05;56.28;99261.03;4919127;29;20419;-67
2023/12/11 08:18:40;;;;;;;4.73;1.87;;;;;;;19.02;56.22;99258.97;4967818;28;20218;-67
2023/12/11 08:21:06;;;;;;;7.67;2.33;;;;;;;19.01;56.11;99253.69;4953367;28;20462;-67
2023/12/11 08:23:31;;;;;;;6.40;1.70;;;;;;;19.01;56.03;99262.25;4926564;29;20447;-67
2023/12/11 08:25:57;;;;;;;4.30;1.47;;;;;;;18.99;55.64;99254.09;4951214;29;20178;-67
2023/12/11 08:28:22;;;;;;;8.23;1.93;;;;;;;18.99;56.49;99259.81;4935397;29;20186;-67
2023/12/11 08:30:48;;;;;;;7.20;2.00;;;;;;;18.97;56.09;99272.88;4938026;29;20227;-67
2023/12/11 08:33:13;;;;;;;7.13;1.90;;;;;;;18.98;55.89;99309.66;4921648;28;20665;-67
2023/12/11 08:35:39;;;;;;;8.10;2.17;;;;;;;18.96;55.75;99309.22;4956710;28;20202;-67
2023/12/11 08:38:04;;;;;;;4.43;1.73;;;;;;;18.96;55.62;99299.84;4935968;29;20919;-67
2023/12/11 08:40:31;;;;;;;5.03;1.77;;;;;;;18.94;55.88;99303.13;4935523;28;20190;-67
2023/12/11 08:42:57;;;;;;;7.80;1.77;;;;;;;18.90;56.65;99321.47;4919962;29;20205;-67
2023/12/11 08:45:22;;;;;;;7.10;2.13;;;;;;;18.89;56.93;99317.00;4937823;29;20430;-67
2023/12/11 08:47:48;;;;;;;8.73;2.27;;;;;;;18.92;57.92;99322.69;4948404;28;20521;-67
2023/12/11 08:50:14;;;;;;;7.40;2.13;;;;;;;18.90;58.04;99342.31;4949986;28;20297;-68
2023/12/11 08:52:41;;;;;;;10.10;1.97;;;;;;;18.94;58.16;99343.16;4935205;29;20179;-67
2023/12/11 08:55:07;;;;;;;8.13;2.13;;;;;;;18.93;58.13;99323.53;4934151;29;20869;-67
2023/12/11 08:57:33;;;;;;;11.73;2.03;;;;;;;18.94;58.35;99317.41;4932023;29;20513;-67
2023/12/11 08:59:58;;;;;;;7.03;2.00;;;;;;;18.95;58.20;99324.75;4918215;29;20215;-67
2023/12/11 09:02:24;;;;;;;9.73;2.80;;;;;;;18.96;57.94;99319.88;4932532;29;20222;-67
2023/12/11 09:04:49;;;;;;;7.40;2.67;;;;;;;18.97;58.07;99322.31;4934808;29;20168;-67
2023/12/11 09:07:14;;;;;;;8.70;2.47;;;;;;;18.97;58.50;99319.44;4929718;29;20195;-67
2023/12/11 09:09:40;;;;;;;10.67;2.93;;;;;;;18.97;57.88;99330.09;4932078;29;20199;-67
2023/12/11 09:12:06;;;;;;;9.80;2.23;;;;;;;18.94;58.17;99328.84;4949025;29;21027;-67
2023/12/11 09:14:33;;;;;;;6.80;2.50;;;;;;;18.96;58.31;99323.53;4935651;29;20206;-67
2023/12/11 09:16:59;;;;;;;6.40;2.00;;;;;;;18.94;58.37;99320.28;4935779;29;20713;-67
2023/12/11 09:19:24;;;;;;;6.10;1.93;;;;;;;18.96;58.23;99323.53;4949290;28;20490;-67
2023/12/11 09:21:49;;;;;;;11.83;2.03;;;;;;;18.97;58.08;99308.00;4935409;28;20701;-67
2023/12/11 09:24:15;;;;;;;7.33;2.20;;;;;;;18.98;58.44;99309.66;4951781;29;20499;-67
2023/12/11 09:26:41;;;;;;;9.07;2.30;;;;;;;18.98;58.41;99320.28;4920007;29;20729;-67
2023/12/11 09:29:06;;;;;;;8.07;1.93;;;;;;;18.98;58.12;99337.44;4915445;29;20254;-67
2023/12/11 09:31:31;;;;;;;7.30;2.03;;;;;;;18.97;58.00;99345.19;4935649;29;20178;-68
2023/12/11 09:33:57;;;;;;;6.10;2.23;;;;;;;18.97;58.01;99348.03;4930858;29;20207;-76
2023/12/11 09:36:22;;;;;;;6.67;1.80;;;;;;;18.96;58.27;99334.19;4931107;29;20301;-73
2023/12/11 09:38:48;;;;;;;9.00;2.40;;;;;;;18.98;57.92;99329.69;4940452;29;20187;-75
2023/12/11 09:41:13;;;;;;;6.00;1.70;;;;;;;18.98;57.88;99338.25;4934367;29;20208;-77
2023/12/11 09:43:38;;;;;;;5.83;2.03;;;;;;;18.95;57.98;99330.47;4929809;29;20184;-77
2023/12/11 09:46:06;;;;;;;10.10;2.67;;;;;;;18.99;57.64;99351.34;4934849;29;20191;-77
2023/12/11 09:48:31;;;;;;;8.73;1.70;;;;;;;18.99;58.10;99342.75;4929614;29;20258;-75
2023/12/11 09:50:57;;;;;;;6.13;1.60;;;;;;;18.98;58.15;99343.97;4913267;29;20423;-75
2023/12/11 09:53:22;;;;;;;7.20;2.10;;;;;;;18.96;58.38;99355.00;4916376;29;20191;-76
2023/12/11 09:55:48;;;;;;;7.23;1.77;;;;;;;18.97;58.03;99347.25;4927599;29;20590;-75
2023/12/11 09:58:13;;;;;;;7.60;2.20;;;;;;;19.01;57.89;99354.59;4949738;29;20854;-75
2023/12/11 10:00:39;;;;;;;4.63;1.53;;;;;;;19.02;57.67;99350.50;4947964;29;20206;-76
2023/12/11 10:03:08;;;;;;;5.47;1.43;;;;;;;19.02;57.76;99343.97;4949457;28;20183;-77
2023/12/11 10:05:35;;;;;;;7.93;1.60;;;;;;;18.97;58.14;99345.19;4919288;29;20178;-75
2023/12/11 10:08:01;;;;;;;9.73;2.23;;;;;;;19.00;58.04;99334.97;4931488;29;20959;-78
2023/12/11 10:10:27;;;;;;;4.77;1.70;;;;;;;19.01;58.00;99337.44;4934798;29;20450;-75
2023/12/11 10:12:54;;;;;;;6.57;1.73;;;;;;;18.99;58.16;99345.63;4963269;28;20187;-77
2023/12/11 10:15:33;;;;;;;5.03;1.60;;;;;;;18.98;58.29;99346.84;4957757;28;20431;-78
2023/12/11 10:18:09;;;;;;;6.83;1.87;;;;;;;18.97;58.11;99350.91;4920378;29;20474;-78
2023/12/11 10:20:36;;;;;;;6.57;1.80;;;;;;;18.98;57.90;99364.00;4953882;28;20446;-78
2023/12/11 10:23:16;;;;;;;4.03;1.50;;;;;;;18.97;57.98;99356.63;4947435;28;20942;-76
2023/12/11 10:25:47;;;;;;;9.43;2.33;;;;;;;18.98;57.92;99366.88;4947091;29;20423;-75
2023/12/11 10:28:14;;;;;;;8.00;2.03;;;;;;;18.98;57.40;99366.03;4947810;29;20470;-76
2023/12/11 10:30:50;;;;;;;8.67;1.80;;;;;;;18.97;57.96;99359.47;4947308;28;20816;-74
2023/12/11 10:33:16;;;;;;;15.73;2.43;;;;;;;19.00;57.67;99358.69;4963842;28;21045;-77
2023/12/11 10:35:41;;;;;;;8.37;1.53;;;;;;;18.97;58.30;99353.75;4964176;28;20418;-75
2023/12/11 10:38:07;;;;;;;7.47;2.30;;;;;;;18.97;57.75;99355.81;4933255;29;21160;-76
2023/12/11 10:40:39;;;;;;;7.70;2.00;;;;;;;18.97;57.87;99359.47;4939998;29;20184;-77
2023/12/11 10:43:05;;;;;;;6.50;1.30;;;;;;;18.97;57.92;99353.75;4946289;29;20582;-76
2023/12/11 10:45:31;;;;;;;5.17;1.90;;;;;;;19.00;57.55;99357.84;4934631;29;20415;-77
2023/12/11 10:47:57;;;;;;;9.87;1.60;;;;;;;18.97;58.01;99370.94;4922453;29;20195;-77
2023/12/11 10:50:22;;;;;;;8.83;1.50;;;;;;;18.98;57.90;99369.72;4951087;29;20427;-76
2023/12/11 10:52:48;;;;;;;5.83;1.50;;;;;;;18.94;58.14;99366.03;4931042;29;20534;-78
2023/12/11 10:55:13;;;;;;;4.07;1.47;;;;;;;18.96;57.96;99371.34;4946725;29;20647;-78
2023/12/11 10:57:39;;;;;;;5.13;1.70;;;;;;;18.96;57.76;99371.34;4917085;29;20186;-78
2023/12/11 11:00:05;;;;;;;5.97;2.20;;;;;;;18.98;57.99;99380.34;4949522;29;20186;-78
2023/12/11 11:02:30;;;;;;;4.47;1.57;;;;;;;18.94;58.25;99373.78;4933686;28;20275;-76
2023/12/11 11:04:56;;;;;;;2.57;1.10;;;;;;;18.96;57.81;99375.03;4918552;29;20411;-78
2023/12/11 11:07:28;;;;;;;4.57;1.60;;;;;;;18.96;57.87;99391.38;4933214;29;20195;-77
2023/12/11 11:10:03;;;;;;;6.70;1.83;;;;;;;18.95;58.14;99389.72;4918787;29;20279;-78
2023/12/11 11:12:52;;;;;;;4.10;1.50;;;;;;;18.95;57.92;99390.56;4912706;29;20431;-78
2023/12/11 11:15:21;;;;;;;3.30;1.43;;;;;;;18.96;57.78;99391.38;4914946;29;21005;-75
2023/12/11 11:18:01;;;;;;;5.20;1.60;;;;;;;18.94;57.97;99394.63;4946623;29;20443;-77
2023/12/11 11:20:27;;;;;;;3.77;1.50;;;;;;;18.93;58.47;99398.72;4916083;29;20546;-77
2023/12/11 11:23:15;;;;;;;4.43;1.50;;;;;;;18.97;57.58;99395.88;4949419;28;20451;-78
2023/12/11 11:25:40;;;;;;;3.13;1.33;;;;;;;18.97;57.61;99402.38;4950375;28;20418;-77
2023/12/11 11:28:06;;;;;;;4.23;1.40;;;;;;;18.93;58.20;99409.34;4916836;29;20461;-78